sensor_id;sensor_type;location;lat;lon;timestamp;P1;durP1;ratioP1;P2;durP2;ratioP2
43986;SDS011;29650;47.378;8.300;2024-02-26T00:01:11;2.75;;;1.27;;
43986;SDS011;29650;47.378;8.300;2024-02-26T00:03:38;2.25;;;1.60;;
43986;SDS011;29650;47.378;8.300;2024-02-26T00:06:07;2.13;;;1.17;;
43986;SDS011;29650;47.378;8.300;2024-02-26T00:08:34;1.38;;;1.20;;
43986;SDS011;29650;47.378;8.300;2024-02-26T00:11:02;1.83;;;1.25;;
43986;SDS011;29650;47.378;8.300;2024-02-26T00:13:29;2.50;;;1.15;;
43986;SDS011;29650;47.378;8.300;2024-02-26T00:15:56;2.28;;;1.33;;
43986;SDS011;29650;47.378;8.300;2024-02-26T00:18:23;1.20;;;1.10;;
43986;SDS011;29650;47.378;8.300;2024-02-26T00:20:50;2.40;;;1.25;;
43986;SDS011;29650;47.378;8.300;2024-02-26T00:23:17;2.67;;;1.20;;
43986;SDS011;29650;47.378;8.300;2024-02-26T00:25:44;3.35;;;1.30;;
43986;SDS011;29650;47.378;8.300;2024-02-26T00:28:12;2.63;;;1.33;;
43986;SDS011;29650;47.378;8.300;2024-02-26T00:30:39;2.88;;;1.48;;
43986;SDS011;29650;47.378;8.300;2024-02-26T00:33:06;3.15;;;1.20;;
43986;SDS011;29650;47.378;8.300;2024-02-26T00:35:32;1.83;;;1.20;;
43986;SDS011;29650;47.378;8.300;2024-02-26T00:37:59;3.42;;;1.10;;
43986;SDS011;29650;47.378;8.300;2024-02-26T00:40:28;2.10;;;1.45;;
43986;SDS011;29650;47.378;8.300;2024-02-26T00:42:55;2.65;;;1.35;;
43986;SDS011;29650;47.378;8.300;2024-02-26T00:45:24;3.70;;;1.17;;
43986;SDS011;29650;47.378;8.300;2024-02-26T00:47:51;3.53;;;1.50;;
43986;SDS011;29650;47.378;8.300;2024-02-26T00:50:18;3.42;;;1.25;;
43986;SDS011;29650;47.378;8.300;2024-02-26T00:52:45;4.68;;;1.20;;
43986;SDS011;29650;47.378;8.300;2024-02-26T00:55:12;1.95;;;1.17;;
43986;SDS011;29650;47.378;8.300;2024-02-26T00:57:39;2.88;;;1.27;;
43986;SDS011;29650;47.378;8.300;2024-02-26T01:00:06;2.05;;;1.20;;
43986;SDS011;29650;47.378;8.300;2024-02-26T01:02:36;2.85;;;1.30;;
43986;SDS011;29650;47.378;8.300;2024-02-26T01:05:03;3.60;;;1.30;;
43986;SDS011;29650;47.378;8.300;2024-02-26T01:07:31;4.32;;;1.58;;
43986;SDS011;29650;47.378;8.300;2024-02-26T01:12:27;3.95;;;1.20;;
43986;SDS011;29650;47.378;8.300;2024-02-26T01:14:54;2.85;;;1.23;;
43986;SDS011;29650;47.378;8.300;2024-02-26T01:17:21;1.95;;;1.40;;
43986;SDS011;29650;47.378;8.300;2024-02-26T01:19:50;2.58;;;1.20;;
43986;SDS011;29650;47.378;8.300;2024-02-26T01:22:18;3.42;;;1.20;;
43986;SDS011;29650;47.378;8.300;2024-02-26T01:24:45;3.33;;;1.15;;
43986;SDS011;29650;47.378;8.300;2024-02-26T01:27:12;2.03;;;1.25;;
43986;SDS011;29650;47.378;8.300;2024-02-26T01:29:40;2.07;;;1.30;;
43986;SDS011;29650;47.378;8.300;2024-02-26T01:32:08;3.38;;;1.08;;
43986;SDS011;29650;47.378;8.300;2024-02-26T01:34:35;2.97;;;1.27;;
43986;SDS011;29650;47.378;8.300;2024-02-26T01:37:04;1.88;;;1.10;;
43986;SDS011;29650;47.378;8.300;2024-02-26T01:39:31;1.40;;;1.07;;
43986;SDS011;29650;47.378;8.300;2024-02-26T01:41:58;2.45;;;1.50;;
43986;SDS011;29650;47.378;8.300;2024-02-26T01:44:25;7.68;;;1.42;;
43986;SDS011;29650;47.378;8.300;2024-02-26T01:46:53;2.72;;;1.58;;
43986;SDS011;29650;47.378;8.300;2024-02-26T01:49:20;2.72;;;1.33;;
43986;SDS011;29650;47.378;8.300;2024-02-26T01:51:47;1.17;;;1.00;;
43986;SDS011;29650;47.378;8.300;2024-02-26T01:54:16;1.30;;;1.15;;
43986;SDS011;29650;47.378;8.300;2024-02-26T01:59:10;3.63;;;1.10;;
43986;SDS011;29650;47.378;8.300;2024-02-26T02:01:37;1.85;;;1.17;;
43986;SDS011;29650;47.378;8.300;2024-02-26T02:04:07;2.28;;;1.20;;
43986;SDS011;29650;47.378;8.300;2024-02-26T02:06:34;1.20;;;1.10;;
43986;SDS011;29650;47.378;8.300;2024-02-26T02:09:03;5.30;;;1.38;;
43986;SDS011;29650;47.378;8.300;2024-02-26T02:11:34;3.90;;;1.25;;
43986;SDS011;29650;47.378;8.300;2024-02-26T02:14:01;5.57;;;1.15;;
43986;SDS011;29650;47.378;8.300;2024-02-26T02:16:28;5.35;;;1.23;;
43986;SDS011;29650;47.378;8.300;2024-02-26T02:18:55;5.25;;;1.20;;
43986;SDS011;29650;47.378;8.300;2024-02-26T02:21:23;4.28;;;1.10;;
43986;SDS011;29650;47.378;8.300;2024-02-26T02:23:50;3.60;;;1.07;;
43986;SDS011;29650;47.378;8.300;2024-02-26T02:26:17;4.80;;;1.50;;
43986;SDS011;29650;47.378;8.300;2024-02-26T02:28:44;2.67;;;1.40;;
43986;SDS011;29650;47.378;8.300;2024-02-26T02:31:14;1.23;;;1.10;;
43986;SDS011;29650;47.378;8.300;2024-02-26T02:33:41;2.80;;;1.50;;
43986;SDS011;29650;47.378;8.300;2024-02-26T02:36:08;1.48;;;1.10;;
43986;SDS011;29650;47.378;8.300;2024-02-26T02:38:37;1.60;;;1.30;;
43986;SDS011;29650;47.378;8.300;2024-02-26T02:41:04;1.60;;;1.02;;
43986;SDS011;29650;47.378;8.300;2024-02-26T02:43:31;3.38;;;1.20;;
43986;SDS011;29650;47.378;8.300;2024-02-26T02:45:58;1.27;;;1.08;;
43986;SDS011;29650;47.378;8.300;2024-02-26T02:48:25;2.55;;;1.20;;
43986;SDS011;29650;47.378;8.300;2024-02-26T02:50:52;3.20;;;1.75;;
43986;SDS011;29650;47.378;8.300;2024-02-26T02:53:19;1.92;;;0.90;;
43986;SDS011;29650;47.378;8.300;2024-02-26T02:55:47;1.77;;;0.90;;
43986;SDS011;29650;47.378;8.300;2024-02-26T02:58:14;2.03;;;1.02;;
43986;SDS011;29650;47.378;8.300;2024-02-26T03:00:41;3.03;;;1.17;;
43986;SDS011;29650;47.378;8.300;2024-02-26T03:03:08;2.47;;;0.80;;
43986;SDS011;29650;47.378;8.300;2024-02-26T03:05:35;1.40;;;0.75;;
43986;SDS011;29650;47.378;8.300;2024-02-26T03:08:02;1.45;;;0.82;;
43986;SDS011;29650;47.378;8.300;2024-02-26T03:10:29;1.10;;;0.70;;
43986;SDS011;29650;47.378;8.300;2024-02-26T03:12:58;0.70;;;0.57;;
43986;SDS011;29650;47.378;8.300;2024-02-26T03:15:25;1.40;;;0.60;;
43986;SDS011;29650;47.378;8.300;2024-02-26T03:17:51;2.08;;;0.60;;
43986;SDS011;29650;47.378;8.300;2024-02-26T03:20:18;1.60;;;0.60;;
43986;SDS011;29650;47.378;8.300;2024-02-26T03:22:45;2.15;;;0.80;;
43986;SDS011;29650;47.378;8.300;2024-02-26T03:25:12;1.15;;;0.80;;
43986;SDS011;29650;47.378;8.300;2024-02-26T03:27:39;1.85;;;0.65;;
43986;SDS011;29650;47.378;8.300;2024-02-26T03:30:08;0.50;;;0.40;;
43986;SDS011;29650;47.378;8.300;2024-02-26T03:32:36;1.42;;;0.60;;
43986;SDS011;29650;47.378;8.300;2024-02-26T03:35:03;0.40;;;0.40;;
43986;SDS011;29650;47.378;8.300;2024-02-26T03:37:30;1.58;;;0.60;;
43986;SDS011;29650;47.378;8.300;2024-02-26T03:39:57;0.50;;;0.40;;
43986;SDS011;29650;47.378;8.300;2024-02-26T03:42:24;1.27;;;0.52;;
43986;SDS011;29650;47.378;8.300;2024-02-26T03:44:50;0.55;;;0.55;;
43986;SDS011;29650;47.378;8.300;2024-02-26T03:47:19;0.93;;;0.57;;
43986;SDS011;29650;47.378;8.300;2024-02-26T03:49:46;3.70;;;0.60;;
43986;SDS011;29650;47.378;8.300;2024-02-26T03:52:13;0.60;;;0.38;;
43986;SDS011;29650;47.378;8.300;2024-02-26T03:54:40;1.35;;;0.85;;
43986;SDS011;29650;47.378;8.300;2024-02-26T03:57:07;1.00;;;0.60;;
43986;SDS011;29650;47.378;8.300;2024-02-26T03:59:34;0.90;;;0.70;;
43986;SDS011;29650;47.378;8.300;2024-02-26T04:02:01;3.03;;;0.90;;
43986;SDS011;29650;47.378;8.300;2024-02-26T04:04:29;1.80;;;0.80;;
43986;SDS011;29650;47.378;8.300;2024-02-26T04:06:59;1.38;;;0.82;;
43986;SDS011;29650;47.378;8.300;2024-02-26T04:09:26;1.70;;;0.90;;
43986;SDS011;29650;47.378;8.300;2024-02-26T04:11:53;1.58;;;0.80;;
43986;SDS011;29650;47.378;8.300;2024-02-26T04:14:20;1.13;;;0.80;;
43986;SDS011;29650;47.378;8.300;2024-02-26T04:16:47;1.48;;;0.80;;
43986;SDS011;29650;47.378;8.300;2024-02-26T04:19:16;0.68;;;0.60;;
43986;SDS011;29650;47.378;8.300;2024-02-26T04:21:45;0.82;;;0.60;;
43986;SDS011;29650;47.378;8.300;2024-02-26T04:24:12;2.10;;;0.60;;
43986;SDS011;29650;47.378;8.300;2024-02-26T04:26:39;0.70;;;0.70;;
43986;SDS011;29650;47.378;8.300;2024-02-26T04:29:06;0.98;;;0.70;;
43986;SDS011;29650;47.378;8.300;2024-02-26T04:31:32;0.75;;;0.70;;
43986;SDS011;29650;47.378;8.300;2024-02-26T04:33:59;3.80;;;1.42;;
43986;SDS011;29650;47.378;8.300;2024-02-26T04:36:26;1.27;;;0.80;;
43986;SDS011;29650;47.378;8.300;2024-02-26T04:38:54;2.08;;;0.80;;
43986;SDS011;29650;47.378;8.300;2024-02-26T04:41:21;2.67;;;0.80;;
43986;SDS011;29650;47.378;8.300;2024-02-26T04:43:48;1.58;;;0.80;;
43986;SDS011;29650;47.378;8.300;2024-02-26T04:46:15;1.83;;;0.90;;
43986;SDS011;29650;47.378;8.300;2024-02-26T04:48:42;2.30;;;0.70;;
43986;SDS011;29650;47.378;8.300;2024-02-26T04:51:11;1.05;;;0.75;;
43986;SDS011;29650;47.378;8.300;2024-02-26T04:53:38;1.95;;;0.60;;
43986;SDS011;29650;47.378;8.300;2024-02-26T04:56:07;2.15;;;0.90;;
43986;SDS011;29650;47.378;8.300;2024-02-26T04:58:34;1.37;;;0.60;;
43986;SDS011;29650;47.378;8.300;2024-02-26T05:01:01;0.57;;;0.57;;
43986;SDS011;29650;47.378;8.300;2024-02-26T05:03:28;1.10;;;0.60;;
43986;SDS011;29650;47.378;8.300;2024-02-26T05:05:55;1.38;;;0.63;;
43986;SDS011;29650;47.378;8.300;2024-02-26T05:08:23;1.05;;;0.28;;
43986;SDS011;29650;47.378;8.300;2024-02-26T05:10:50;1.02;;;0.50;;
43986;SDS011;29650;47.378;8.300;2024-02-26T05:13:18;1.70;;;0.60;;
43986;SDS011;29650;47.378;8.300;2024-02-26T05:15:45;0.93;;;0.40;;
43986;SDS011;29650;47.378;8.300;2024-02-26T05:18:14;0.68;;;0.57;;
43986;SDS011;29650;47.378;8.300;2024-02-26T05:20:41;1.10;;;0.50;;
43986;SDS011;29650;47.378;8.300;2024-02-26T05:23:08;0.55;;;0.52;;
43986;SDS011;29650;47.378;8.300;2024-02-26T05:25:36;0.95;;;0.47;;
43986;SDS011;29650;47.378;8.300;2024-02-26T05:28:03;0.70;;;0.50;;
43986;SDS011;29650;47.378;8.300;2024-02-26T05:30:31;0.47;;;0.45;;
43986;SDS011;29650;47.378;8.300;2024-02-26T05:32:58;1.85;;;0.90;;
43986;SDS011;29650;47.378;8.300;2024-02-26T05:35:25;1.98;;;0.52;;
43986;SDS011;29650;47.378;8.300;2024-02-26T05:37:52;0.40;;;0.40;;
43986;SDS011;29650;47.378;8.300;2024-02-26T05:40:20;0.50;;;0.40;;
43986;SDS011;29650;47.378;8.300;2024-02-26T05:42:46;0.50;;;0.50;;
43986;SDS011;29650;47.378;8.300;2024-02-26T05:45:14;1.17;;;0.70;;
43986;SDS011;29650;47.378;8.300;2024-02-26T05:47:43;2.70;;;0.50;;
43986;SDS011;29650;47.378;8.300;2024-02-26T05:50:10;0.98;;;0.60;;
43986;SDS011;29650;47.378;8.300;2024-02-26T05:52:37;1.20;;;0.40;;
43986;SDS011;29650;47.378;8.300;2024-02-26T05:55:05;1.50;;;0.68;;
43986;SDS011;29650;47.378;8.300;2024-02-26T05:57:33;1.42;;;0.90;;
43986;SDS011;29650;47.378;8.300;2024-02-26T06:00:00;1.20;;;0.73;;
43986;SDS011;29650;47.378;8.300;2024-02-26T06:02:30;0.73;;;0.60;;
43986;SDS011;29650;47.378;8.300;2024-02-26T06:04:59;1.05;;;0.75;;
43986;SDS011;29650;47.378;8.300;2024-02-26T06:07:25;1.05;;;0.65;;
43986;SDS011;29650;47.378;8.300;2024-02-26T06:09:52;4.25;;;0.52;;
43986;SDS011;29650;47.378;8.300;2024-02-26T06:12:20;2.35;;;1.13;;
43986;SDS011;29650;47.378;8.300;2024-02-26T06:14:47;1.85;;;1.08;;
43986;SDS011;29650;47.378;8.300;2024-02-26T06:17:14;0.80;;;0.80;;
43986;SDS011;29650;47.378;8.300;2024-02-26T06:19:41;1.77;;;0.90;;
43986;SDS011;29650;47.378;8.300;2024-02-26T06:22:09;2.38;;;1.10;;
43986;SDS011;29650;47.378;8.300;2024-02-26T06:24:36;2.38;;;1.25;;
43986;SDS011;29650;47.378;8.300;2024-02-26T06:27:03;2.40;;;1.15;;
43986;SDS011;29650;47.378;8.300;2024-02-26T06:29:30;3.80;;;1.38;;
43986;SDS011;29650;47.378;8.300;2024-02-26T06:31:57;4.80;;;0.88;;
43986;SDS011;29650;47.378;8.300;2024-02-26T06:34:24;3.35;;;1.27;;
43986;SDS011;29650;47.378;8.300;2024-02-26T06:36:51;1.67;;;1.05;;
43986;SDS011;29650;47.378;8.300;2024-02-26T06:39:19;1.75;;;1.10;;
43986;SDS011;29650;47.378;8.300;2024-02-26T06:41:46;1.30;;;0.80;;
43986;SDS011;29650;47.378;8.300;2024-02-26T06:44:13;1.00;;;0.80;;
43986;SDS011;29650;47.378;8.300;2024-02-26T06:46:40;3.42;;;1.60;;
43986;SDS011;29650;47.378;8.300;2024-02-26T06:49:07;2.70;;;1.00;;
43986;SDS011;29650;47.378;8.300;2024-02-26T06:51:34;1.10;;;0.70;;
43986;SDS011;29650;47.378;8.300;2024-02-26T06:54:01;2.65;;;0.75;;
43986;SDS011;29650;47.378;8.300;2024-02-26T06:56:29;4.88;;;0.82;;
43986;SDS011;29650;47.378;8.300;2024-02-26T06:58:56;2.70;;;0.90;;
43986;SDS011;29650;47.378;8.300;2024-02-26T07:01:23;1.67;;;1.10;;
43986;SDS011;29650;47.378;8.300;2024-02-26T07:03:50;0.75;;;0.75;;
43986;SDS011;29650;47.378;8.300;2024-02-26T07:06:17;1.05;;;0.60;;
43986;SDS011;29650;47.378;8.300;2024-02-26T07:08:43;0.50;;;0.50;;
43986;SDS011;29650;47.378;8.300;2024-02-26T07:11:11;1.65;;;0.65;;
43986;SDS011;29650;47.378;8.300;2024-02-26T07:13:39;1.38;;;0.52;;
43986;SDS011;29650;47.378;8.300;2024-02-26T07:16:08;1.80;;;0.83;;
43986;SDS011;29650;47.378;8.300;2024-02-26T07:18:35;2.58;;;0.70;;
43986;SDS011;29650;47.378;8.300;2024-02-26T07:21:02;1.33;;;0.80;;
43986;SDS011;29650;47.378;8.300;2024-02-26T07:23:29;3.45;;;0.80;;
43986;SDS011;29650;47.378;8.300;2024-02-26T07:25:57;9.35;;;4.50;;
43986;SDS011;29650;47.378;8.300;2024-02-26T07:28:24;10.70;;;5.60;;
43986;SDS011;29650;47.378;8.300;2024-02-26T07:30:52;10.65;;;5.70;;
43986;SDS011;29650;47.378;8.300;2024-02-26T07:33:19;7.38;;;2.60;;
43986;SDS011;29650;47.378;8.300;2024-02-26T07:35:46;2.85;;;1.58;;
43986;SDS011;29650;47.378;8.300;2024-02-26T07:38:13;3.42;;;1.05;;
43986;SDS011;29650;47.378;8.300;2024-02-26T07:40:40;2.08;;;1.15;;
43986;SDS011;29650;47.378;8.300;2024-02-26T07:43:07;1.48;;;0.85;;
43986;SDS011;29650;47.378;8.300;2024-02-26T07:45:34;1.80;;;0.80;;
43986;SDS011;29650;47.378;8.300;2024-02-26T07:48:03;2.35;;;0.73;;
43986;SDS011;29650;47.378;8.300;2024-02-26T07:50:30;1.48;;;1.05;;
43986;SDS011;29650;47.378;8.300;2024-02-26T07:52:57;1.67;;;0.93;;
43986;SDS011;29650;47.378;8.300;2024-02-26T07:55:24;0.82;;;0.65;;
43986;SDS011;29650;47.378;8.300;2024-02-26T07:57:51;1.25;;;0.90;;
43986;SDS011;29650;47.378;8.300;2024-02-26T08:00:18;0.85;;;0.65;;
43986;SDS011;29650;47.378;8.300;2024-02-26T08:02:45;0.93;;;0.70;;
43986;SDS011;29650;47.378;8.300;2024-02-26T08:05:13;0.70;;;0.70;;
43986;SDS011;29650;47.378;8.300;2024-02-26T08:07:40;2.35;;;0.90;;
43986;SDS011;29650;47.378;8.300;2024-02-26T08:10:08;0.75;;;0.60;;
43986;SDS011;29650;47.378;8.300;2024-02-26T08:12:36;0.93;;;0.60;;
43986;SDS011;29650;47.378;8.300;2024-02-26T08:15:03;0.50;;;0.50;;
43986;SDS011;29650;47.378;8.300;2024-02-26T08:17:31;0.82;;;0.70;;
43986;SDS011;29650;47.378;8.300;2024-02-26T08:19:58;2.95;;;0.90;;
43986;SDS011;29650;47.378;8.300;2024-02-26T08:22:27;2.05;;;1.40;;
43986;SDS011;29650;47.378;8.300;2024-02-26T08:24:53;0.98;;;0.70;;
43986;SDS011;29650;47.378;8.300;2024-02-26T08:27:20;2.80;;;0.70;;
43986;SDS011;29650;47.378;8.300;2024-02-26T08:29:47;0.85;;;0.77;;
43986;SDS011;29650;47.378;8.300;2024-02-26T08:32:14;0.77;;;0.70;;
43986;SDS011;29650;47.378;8.300;2024-02-26T08:34:42;1.05;;;0.82;;
43986;SDS011;29650;47.378;8.300;2024-02-26T08:37:08;0.73;;;0.73;;
43986;SDS011;29650;47.378;8.300;2024-02-26T08:39:37;0.70;;;0.70;;
43986;SDS011;29650;47.378;8.300;2024-02-26T08:42:04;1.58;;;0.85;;
43986;SDS011;29650;47.378;8.300;2024-02-26T08:44:31;0.75;;;0.68;;
43986;SDS011;29650;47.378;8.300;2024-02-26T08:46:58;1.48;;;0.80;;
43986;SDS011;29650;47.378;8.300;2024-02-26T08:49:25;0.98;;;0.80;;
43986;SDS011;29650;47.378;8.300;2024-02-26T08:51:52;1.15;;;0.95;;
43986;SDS011;29650;47.378;8.300;2024-02-26T08:54:19;1.33;;;0.80;;
43986;SDS011;29650;47.378;8.300;2024-02-26T08:56:48;2.25;;;0.80;;
43986;SDS011;29650;47.378;8.300;2024-02-26T08:59:14;1.27;;;0.88;;
43986;SDS011;29650;47.378;8.300;2024-02-26T09:01:47;0.80;;;0.80;;
43986;SDS011;29650;47.378;8.300;2024-02-26T09:04:14;1.77;;;1.10;;
43986;SDS011;29650;47.378;8.300;2024-02-26T09:06:41;1.52;;;0.90;;
43986;SDS011;29650;47.378;8.300;2024-02-26T09:09:08;2.55;;;1.00;;
43986;SDS011;29650;47.378;8.300;2024-02-26T09:11:36;2.75;;;0.75;;
43986;SDS011;29650;47.378;8.300;2024-02-26T09:14:04;2.40;;;0.93;;
43986;SDS011;29650;47.378;8.300;2024-02-26T09:16:31;0.80;;;0.80;;
43986;SDS011;29650;47.378;8.300;2024-02-26T09:18:58;1.73;;;0.68;;
43986;SDS011;29650;47.378;8.300;2024-02-26T09:21:25;1.40;;;0.80;;
43986;SDS011;29650;47.378;8.300;2024-02-26T09:23:52;1.73;;;1.02;;
43986;SDS011;29650;47.378;8.300;2024-02-26T09:26:19;3.60;;;0.90;;
43986;SDS011;29650;47.378;8.300;2024-02-26T09:28:46;4.15;;;1.10;;
43986;SDS011;29650;47.378;8.300;2024-02-26T09:31:15;5.10;;;1.05;;
43986;SDS011;29650;47.378;8.300;2024-02-26T09:33:44;1.52;;;0.70;;
43986;SDS011;29650;47.378;8.300;2024-02-26T09:36:11;1.85;;;0.88;;
43986;SDS011;29650;47.378;8.300;2024-02-26T09:38:38;1.35;;;1.00;;
43986;SDS011;29650;47.378;8.300;2024-02-26T09:41:05;2.25;;;0.85;;
43986;SDS011;29650;47.378;8.300;2024-02-26T09:43:34;1.38;;;0.80;;
43986;SDS011;29650;47.378;8.300;2024-02-26T09:46:01;1.37;;;0.97;;
43986;SDS011;29650;47.378;8.300;2024-02-26T09:48:30;1.40;;;0.80;;
43986;SDS011;29650;47.378;8.300;2024-02-26T09:50:59;1.13;;;0.70;;
43986;SDS011;29650;47.378;8.300;2024-02-26T09:53:27;0.70;;;0.60;;
43986;SDS011;29650;47.378;8.300;2024-02-26T09:55:56;0.77;;;0.65;;
43986;SDS011;29650;47.378;8.300;2024-02-26T09:58:23;2.38;;;0.80;;
43986;SDS011;29650;47.378;8.300;2024-02-26T10:00:53;1.35;;;0.70;;
43986;SDS011;29650;47.378;8.300;2024-02-26T10:03:25;1.20;;;0.57;;
43986;SDS011;29650;47.378;8.300;2024-02-26T10:05:58;1.00;;;0.68;;
43986;SDS011;29650;47.378;8.300;2024-02-26T10:08:27;2.22;;;0.90;;
43986;SDS011;29650;47.378;8.300;2024-02-26T10:10:55;2.80;;;0.90;;
43986;SDS011;29650;47.378;8.300;2024-02-26T10:13:22;1.55;;;0.80;;
43986;SDS011;29650;47.378;8.300;2024-02-26T10:15:50;1.17;;;0.90;;
43986;SDS011;29650;47.378;8.300;2024-02-26T10:18:17;1.65;;;0.73;;
43986;SDS011;29650;47.378;8.300;2024-02-26T10:20:50;0.90;;;0.80;;
43986;SDS011;29650;47.378;8.300;2024-02-26T10:23:26;0.88;;;0.88;;
43986;SDS011;29650;47.378;8.300;2024-02-26T10:25:54;1.02;;;0.85;;
43986;SDS011;29650;47.378;8.300;2024-02-26T10:28:21;1.63;;;0.93;;
43986;SDS011;29650;47.378;8.300;2024-02-26T10:30:50;3.45;;;0.98;;
43986;SDS011;29650;47.378;8.300;2024-02-26T10:33:17;1.30;;;0.77;;
43986;SDS011;29650;47.378;8.300;2024-02-26T10:35:45;2.47;;;1.05;;
43986;SDS011;29650;47.378;8.300;2024-02-26T10:38:13;2.17;;;0.80;;
43986;SDS011;29650;47.378;8.300;2024-02-26T10:40:45;1.58;;;0.90;;
43986;SDS011;29650;47.378;8.300;2024-02-26T10:43:12;0.80;;;0.70;;
43986;SDS011;29650;47.378;8.300;2024-02-26T10:45:39;4.07;;;0.85;;
43986;SDS011;29650;47.378;8.300;2024-02-26T10:48:09;3.65;;;0.90;;
43986;SDS011;29650;47.378;8.300;2024-02-26T10:50:38;2.17;;;1.02;;
43986;SDS011;29650;47.378;8.300;2024-02-26T10:53:05;4.30;;;1.30;;
43986;SDS011;29650;47.378;8.300;2024-02-26T10:55:41;1.48;;;0.77;;
43986;SDS011;29650;47.378;8.300;2024-02-26T10:58:12;1.08;;;0.85;;
43986;SDS011;29650;47.378;8.300;2024-02-26T11:00:40;0.77;;;0.50;;
43986;SDS011;29650;47.378;8.300;2024-02-26T11:03:09;0.88;;;0.88;;
43986;SDS011;29650;47.378;8.300;2024-02-26T11:05:38;1.17;;;0.73;;
43986;SDS011;29650;47.378;8.300;2024-02-26T11:08:07;1.65;;;0.77;;
43986;SDS011;29650;47.378;8.300;2024-02-26T11:10:36;4.07;;;1.40;;
43986;SDS011;29650;47.378;8.300;2024-02-26T11:13:05;1.20;;;0.80;;
43986;SDS011;29650;47.378;8.300;2024-02-26T11:15:35;1.48;;;0.85;;
43986;SDS011;29650;47.378;8.300;2024-02-26T11:18:03;1.77;;;1.00;;
43986;SDS011;29650;47.378;8.300;2024-02-26T11:20:31;2.90;;;0.90;;
43986;SDS011;29650;47.378;8.300;2024-02-26T11:22:59;1.35;;;1.02;;
43986;SDS011;29650;47.378;8.300;2024-02-26T11:25:27;2.30;;;1.00;;
43986;SDS011;29650;47.378;8.300;2024-02-26T11:27:54;4.03;;;1.08;;
43986;SDS011;29650;47.378;8.300;2024-02-26T11:30:26;2.75;;;1.02;;
43986;SDS011;29650;47.378;8.300;2024-02-26T11:32:56;2.22;;;1.08;;
43986;SDS011;29650;47.378;8.300;2024-02-26T11:35:24;1.10;;;0.68;;
43986;SDS011;29650;47.378;8.300;2024-02-26T11:37:52;1.80;;;0.85;;
43986;SDS011;29650;47.378;8.300;2024-02-26T11:40:21;1.38;;;0.93;;
43986;SDS011;29650;47.378;8.300;2024-02-26T11:42:49;1.77;;;0.98;;
43986;SDS011;29650;47.378;8.300;2024-02-26T11:48:24;1.38;;;0.85;;
43986;SDS011;29650;47.378;8.300;2024-02-26T11:50:52;5.53;;;1.13;;
43986;SDS011;29650;47.378;8.300;2024-02-26T11:53:21;2.10;;;1.00;;
43986;SDS011;29650;47.378;8.300;2024-02-26T11:58:46;1.63;;;0.90;;
43986;SDS011;29650;47.378;8.300;2024-02-26T12:04:11;2.08;;;0.80;;
43986;SDS011;29650;47.378;8.300;2024-02-26T12:06:47;0.55;;;0.52;;
43986;SDS011;29650;47.378;8.300;2024-02-26T12:11:59;2.50;;;0.95;;
43986;SDS011;29650;47.378;8.300;2024-02-26T12:14:27;2.95;;;1.15;;
43986;SDS011;29650;47.378;8.300;2024-02-26T12:16:56;3.05;;;0.82;;
43986;SDS011;29650;47.378;8.300;2024-02-26T12:21:51;2.05;;;0.85;;
43986;SDS011;29650;47.378;8.300;2024-02-26T12:24:19;1.67;;;0.70;;
43986;SDS011;29650;47.378;8.300;2024-02-26T12:26:47;2.58;;;1.02;;
43986;SDS011;29650;47.378;8.300;2024-02-26T12:29:14;10.93;;;3.00;;
43986;SDS011;29650;47.378;8.300;2024-02-26T12:31:41;2.38;;;1.10;;
43986;SDS011;29650;47.378;8.300;2024-02-26T12:34:10;0.77;;;0.70;;
43986;SDS011;29650;47.378;8.300;2024-02-26T12:36:39;1.08;;;0.68;;
43986;SDS011;29650;47.378;8.300;2024-02-26T12:39:05;2.20;;;0.80;;
43986;SDS011;29650;47.378;8.300;2024-02-26T12:41:34;2.67;;;0.90;;
43986;SDS011;29650;47.378;8.300;2024-02-26T12:44:01;1.92;;;1.00;;
43986;SDS011;29650;47.378;8.300;2024-02-26T12:46:28;9.68;;;2.47;;
43986;SDS011;29650;47.378;8.300;2024-02-26T12:48:58;2.05;;;1.13;;
43986;SDS011;29650;47.378;8.300;2024-02-26T12:51:27;2.10;;;1.20;;
43986;SDS011;29650;47.378;8.300;2024-02-26T12:53:55;3.17;;;1.15;;
43986;SDS011;29650;47.378;8.300;2024-02-26T12:56:22;1.23;;;0.68;;
43986;SDS011;29650;47.378;8.300;2024-02-26T12:58:50;1.50;;;0.80;;
43986;SDS011;29650;47.378;8.300;2024-02-26T13:01:19;2.80;;;1.13;;
43986;SDS011;29650;47.378;8.300;2024-02-26T13:03:48;1.13;;;0.95;;
43986;SDS011;29650;47.378;8.300;2024-02-26T13:06:16;3.65;;;1.10;;
43986;SDS011;29650;47.378;8.300;2024-02-26T13:08:45;6.07;;;1.38;;
43986;SDS011;29650;47.378;8.300;2024-02-26T13:11:13;1.90;;;0.90;;
43986;SDS011;29650;47.378;8.300;2024-02-26T13:13:40;2.65;;;1.20;;
43986;SDS011;29650;47.378;8.300;2024-02-26T13:16:10;2.05;;;1.00;;
43986;SDS011;29650;47.378;8.300;2024-02-26T13:18:41;2.13;;;0.95;;
43986;SDS011;29650;47.378;8.300;2024-02-26T13:21:09;3.00;;;0.75;;
43986;SDS011;29650;47.378;8.300;2024-02-26T13:23:37;2.13;;;0.90;;
43986;SDS011;29650;47.378;8.300;2024-02-26T13:26:06;5.22;;;1.10;;
43986;SDS011;29650;47.378;8.300;2024-02-26T13:28:34;2.63;;;0.93;;
43986;SDS011;29650;47.378;8.300;2024-02-26T13:31:01;2.58;;;1.00;;
43986;SDS011;29650;47.378;8.300;2024-02-26T13:33:30;3.00;;;1.00;;
43986;SDS011;29650;47.378;8.300;2024-02-26T13:35:57;2.45;;;0.90;;
43986;SDS011;29650;47.378;8.300;2024-02-26T13:38:25;1.47;;;0.80;;
43986;SDS011;29650;47.378;8.300;2024-02-26T13:40:53;1.60;;;1.15;;
43986;SDS011;29650;47.378;8.300;2024-02-26T13:43:22;2.58;;;0.90;;
43986;SDS011;29650;47.378;8.300;2024-02-26T13:45:49;2.45;;;1.05;;
43986;SDS011;29650;47.378;8.300;2024-02-26T13:48:16;1.83;;;1.00;;
43986;SDS011;29650;47.378;8.300;2024-02-26T13:50:43;2.17;;;1.15;;
43986;SDS011;29650;47.378;8.300;2024-02-26T13:53:11;5.55;;;1.00;;
43986;SDS011;29650;47.378;8.300;2024-02-26T13:55:39;1.63;;;0.93;;
43986;SDS011;29650;47.378;8.300;2024-02-26T13:58:07;3.42;;;1.00;;
43986;SDS011;29650;47.378;8.300;2024-02-26T14:00:36;0.93;;;0.77;;
43986;SDS011;29650;47.378;8.300;2024-02-26T14:03:03;2.00;;;1.08;;
43986;SDS011;29650;47.378;8.300;2024-02-26T14:05:30;3.33;;;1.00;;
43986;SDS011;29650;47.378;8.300;2024-02-26T14:07:57;2.58;;;1.00;;
43986;SDS011;29650;47.378;8.300;2024-02-26T14:10:24;1.20;;;0.77;;
43986;SDS011;29650;47.378;8.300;2024-02-26T14:12:52;2.50;;;0.98;;
43986;SDS011;29650;47.378;8.300;2024-02-26T14:15:19;3.95;;;0.90;;
43986;SDS011;29650;47.378;8.300;2024-02-26T14:17:47;1.60;;;0.80;;
43986;SDS011;29650;47.378;8.300;2024-02-26T14:20:19;1.95;;;1.05;;
43986;SDS011;29650;47.378;8.300;2024-02-26T14:22:46;2.92;;;1.13;;
43986;SDS011;29650;47.378;8.300;2024-02-26T14:25:13;1.25;;;0.85;;
43986;SDS011;29650;47.378;8.300;2024-02-26T14:27:40;1.33;;;0.95;;
43986;SDS011;29650;47.378;8.300;2024-02-26T14:30:07;1.50;;;0.90;;
43986;SDS011;29650;47.378;8.300;2024-02-26T14:32:34;2.20;;;1.33;;
43986;SDS011;29650;47.378;8.300;2024-02-26T14:35:04;1.67;;;1.05;;
43986;SDS011;29650;47.378;8.300;2024-02-26T14:37:33;1.70;;;1.05;;
43986;SDS011;29650;47.378;8.300;2024-02-26T14:40:00;1.35;;;0.88;;
43986;SDS011;29650;47.378;8.300;2024-02-26T14:42:27;4.00;;;1.10;;
43986;SDS011;29650;47.378;8.300;2024-02-26T14:44:55;1.88;;;1.05;;
43986;SDS011;29650;47.378;8.300;2024-02-26T14:47:22;2.17;;;1.20;;
43986;SDS011;29650;47.378;8.300;2024-02-26T14:49:49;1.65;;;0.80;;
43986;SDS011;29650;47.378;8.300;2024-02-26T14:52:18;2.20;;;1.23;;
43986;SDS011;29650;47.378;8.300;2024-02-26T14:54:45;1.05;;;0.82;;
43986;SDS011;29650;47.378;8.300;2024-02-26T14:57:12;0.90;;;0.68;;
43986;SDS011;29650;47.378;8.300;2024-02-26T14:59:39;4.00;;;1.30;;
43986;SDS011;29650;47.378;8.300;2024-02-26T15:02:07;1.02;;;0.90;;
43986;SDS011;29650;47.378;8.300;2024-02-26T15:04:35;2.95;;;0.90;;
43986;SDS011;29650;47.378;8.300;2024-02-26T15:07:02;1.92;;;1.00;;
43986;SDS011;29650;47.378;8.300;2024-02-26T15:09:31;1.52;;;1.17;;